sensor_id;sensor_type;location;lat;lon;timestamp;pressure;altitude;pressure_sealevel;temperature;humidity
69570;BME280;56781;42.292;23.146;2023-04-29T00:01:30;95660.41;;;-0.18;100.00
69570;BME280;56781;42.292;23.146;2023-04-29T00:03:57;95649.09;;;-0.19;100.00
69570;BME280;56781;42.292;23.146;2023-04-29T00:06:25;95664.06;;;-0.08;100.00
69570;BME280;56781;42.292;23.146;2023-04-29T00:08:52;95648.25;;;-0.19;100.00
69570;BME280;56781;42.292;23.146;2023-04-29T00:11:19;95642.19;;;-0.20;100.00
69570;BME280;56781;42.292;23.146;2023-04-29T00:13:47;95641.63;;;-0.46;100.00
69570;BME280;56781;42.292;23.146;2023-04-29T00:16:14;95663.53;;;-0.63;100.00
69570;BME280;56781;42.292;23.146;2023-04-29T00:18:41;95652.09;;;-0.57;100.00
69570;BME280;56781;42.292;23.146;2023-04-29T00:21:08;95654.09;;;-0.29;100.00
69570;BME280;56781;42.292;23.146;2023-04-29T00:23:35;95648.75;;;-0.11;100.00
69570;BME280;56781;42.292;23.146;2023-04-29T00:26:03;95633.72;;;0.02;100.00
69570;BME280;56781;42.292;23.146;2023-04-29T00:28:30;95631.66;;;0.15;100.00
69570;BME280;56781;42.292;23.146;2023-04-29T00:30:57;95637.50;;;0.17;100.00
69570;BME280;56781;42.292;23.146;2023-04-29T00:33:24;95653.19;;;-0.23;100.00
69570;BME280;56781;42.292;23.146;2023-04-29T00:35:51;95649.72;;;-0.59;100.00
69570;BME280;56781;42.292;23.146;2023-04-29T00:38:19;95667.03;;;-0.81;100.00
69570;BME280;56781;42.292;23.146;2023-04-29T00:40:47;95654.47;;;-0.79;100.00
69570;BME280;56781;42.292;23.146;2023-04-29T00:43:14;95640.66;;;-0.63;100.00
69570;BME280;56781;42.292;23.146;2023-04-29T00:45:41;95668.06;;;-0.05;100.00
69570;BME280;56781;42.292;23.146;2023-04-29T00:48:10;95642.88;;;0.22;100.00
69570;BME280;56781;42.292;23.146;2023-04-29T00:50:37;95638.50;;;0.28;100.00
69570;BME280;56781;42.292;23.146;2023-04-29T00:53:04;95647.41;;;0.27;100.00
69570;BME280;56781;42.292;23.146;2023-04-29T00:55:32;95662.31;;;0.10;100.00
69570;BME280;56781;42.292;23.146;2023-04-29T00:58:00;95646.19;;;-0.53;100.00
69570;BME280;56781;42.292;23.146;2023-04-29T01:00:29;95652.94;;;-0.57;100.00
69570;BME280;56781;42.292;23.146;2023-04-29T01:02:57;95654.97;;;-0.59;100.00
69570;BME280;56781;42.292;23.146;2023-04-29T01:05:26;95679.69;;;-0.36;100.00
69570;BME280;56781;42.292;23.146;2023-04-29T01:10:54;95643.78;;;-0.42;100.00
69570;BME280;56781;42.292;23.146;2023-04-29T01:13:34;95664.50;;;-0.46;100.00
69570;BME280;56781;42.292;23.146;2023-04-29T01:16:09;95646.84;;;-0.57;100.00
69570;BME280;56781;42.292;23.146;2023-04-29T01:18:42;95640.75;;;-0.81;100.00
69570;BME280;56781;42.292;23.146;2023-04-29T01:21:11;95651.44;;;-0.53;100.00
69570;BME280;56781;42.292;23.146;2023-04-29T01:23:38;95653.28;;;-0.41;100.00
69570;BME280;56781;42.292;23.146;2023-04-29T01:26:05;95625.22;;;-0.71;100.00
69570;BME280;56781;42.292;23.146;2023-04-29T01:31:18;95646.50;;;-0.49;100.00
69570;BME280;56781;42.292;23.146;2023-04-29T01:33:58;95646.41;;;-0.54;100.00
69570;BME280;56781;42.292;23.146;2023-04-29T01:39:36;95639.66;;;-1.04;100.00
69570;BME280;56781;42.292;23.146;2023-04-29T01:42:29;95618.25;;;-1.19;100.00
69570;BME280;56781;42.292;23.146;2023-04-29T01:45:04;95623.09;;;-1.35;100.00
69570;BME280;56781;42.292;23.146;2023-04-29T01:47:32;95613.25;;;-1.39;100.00
69570;BME280;56781;42.292;23.146;2023-04-29T01:49:59;95640.91;;;-1.06;100.00
69570;BME280;56781;42.292;23.146;2023-04-29T01:52:28;95631.50;;;-1.14;100.00
69570;BME280;56781;42.292;23.146;2023-04-29T01:54:55;95627.56;;;-1.05;100.00
69570;BME280;56781;42.292;23.146;2023-04-29T01:57:23;95609.38;;;-1.06;100.00
69570;BME280;56781;42.292;23.146;2023-04-29T01:59:50;95621.06;;;-0.91;100.00
69570;BME280;56781;42.292;23.146;2023-04-29T02:02:18;95639.50;;;-0.79;100.00
69570;BME280;56781;42.292;23.146;2023-04-29T02:04:49;95642.34;;;-0.80;100.00
69570;BME280;56781;42.292;23.146;2023-04-29T02:07:16;95641.19;;;-0.84;100.00
69570;BME280;56781;42.292;23.146;2023-04-29T02:09:44;95620.47;;;-1.04;100.00
69570;BME280;56781;42.292;23.146;2023-04-29T02:12:11;95627.28;;;-1.15;100.00
69570;BME280;56781;42.292;23.146;2023-04-29T02:14:38;95641.50;;;-0.93;100.00
69570;BME280;56781;42.292;23.146;2023-04-29T02:17:05;95613.25;;;-1.09;100.00
69570;BME280;56781;42.292;23.146;2023-04-29T02:19:32;95625.09;;;-1.18;100.00
69570;BME280;56781;42.292;23.146;2023-04-29T02:22:00;95614.56;;;-1.00;100.00
69570;BME280;56781;42.292;23.146;2023-04-29T02:24:27;95638.97;;;-0.57;100.00
69570;BME280;56781;42.292;23.146;2023-04-29T02:26:54;95626.28;;;-0.60;100.00
69570;BME280;56781;42.292;23.146;2023-04-29T02:29:21;95649.50;;;-0.46;100.00
69570;BME280;56781;42.292;23.146;2023-04-29T02:31:48;95626.19;;;-0.54;100.00
69570;BME280;56781;42.292;23.146;2023-04-29T02:34:16;95609.31;;;-0.76;100.00
69570;BME280;56781;42.292;23.146;2023-04-29T02:36:43;95620.88;;;-0.77;100.00
69570;BME280;56781;42.292;23.146;2023-04-29T02:39:11;95622.06;;;-1.03;100.00
69570;BME280;56781;42.292;23.146;2023-04-29T02:41:38;95651.03;;;-1.22;100.00
69570;BME280;56781;42.292;23.146;2023-04-29T02:44:05;95626.63;;;-1.41;100.00
69570;BME280;56781;42.292;23.146;2023-04-29T02:46:32;95644.09;;;-1.16;100.00
69570;BME280;56781;42.292;23.146;2023-04-29T02:49:01;95651.06;;;-1.10;100.00
69570;BME280;56781;42.292;23.146;2023-04-29T02:51:29;95639.00;;;-1.29;100.00
69570;BME280;56781;42.292;23.146;2023-04-29T02:53:56;95617.97;;;-1.60;100.00
69570;BME280;56781;42.292;23.146;2023-04-29T02:56:24;95618.19;;;-1.61;100.00
69570;BME280;56781;42.292;23.146;2023-04-29T02:58:51;95628.63;;;-1.24;100.00
69570;BME280;56781;42.292;23.146;2023-04-29T03:01:18;95649.66;;;-0.82;100.00
69570;BME280;56781;42.292;23.146;2023-04-29T03:03:46;95636.44;;;-1.06;100.00
69570;BME280;56781;42.292;23.146;2023-04-29T03:06:15;95652.09;;;-1.11;100.00
69570;BME280;56781;42.292;23.146;2023-04-29T03:08:42;95623.00;;;-1.58;100.00
69570;BME280;56781;42.292;23.146;2023-04-29T03:11:09;95648.81;;;-1.73;100.00
69570;BME280;56781;42.292;23.146;2023-04-29T03:13:36;95659.16;;;-1.79;100.00
69570;BME280;56781;42.292;23.146;2023-04-29T03:16:04;95648.09;;;-1.81;100.00
69570;BME280;56781;42.292;23.146;2023-04-29T03:18:32;95656.53;;;-1.79;100.00
69570;BME280;56781;42.292;23.146;2023-04-29T03:20:59;95666.81;;;-1.59;100.00
69570;BME280;56781;42.292;23.146;2023-04-29T03:23:26;95652.91;;;-1.29;100.00
69570;BME280;56781;42.292;23.146;2023-04-29T03:25:53;95665.09;;;-0.86;100.00
69570;BME280;56781;42.292;23.146;2023-04-29T03:28:21;95657.78;;;-0.84;100.00
69570;BME280;56781;42.292;23.146;2023-04-29T03:30:49;95694.50;;;-0.96;100.00
69570;BME280;56781;42.292;23.146;2023-04-29T03:33:16;95707.28;;;-1.29;100.00
69570;BME280;56781;42.292;23.146;2023-04-29T03:35:44;95696.03;;;-1.37;100.00
69570;BME280;56781;42.292;23.146;2023-04-29T03:38:11;95692.41;;;-1.36;100.00
69570;BME280;56781;42.292;23.146;2023-04-29T03:40:38;95676.16;;;-1.14;100.00
69570;BME280;56781;42.292;23.146;2023-04-29T03:43:06;95689.22;;;-0.65;100.00
69570;BME280;56781;42.292;23.146;2023-04-29T03:45:35;95682.91;;;-0.34;100.00
69570;BME280;56781;42.292;23.146;2023-04-29T03:48:02;95685.28;;;-0.56;100.00
69570;BME280;56781;42.292;23.146;2023-04-29T03:50:29;95709.28;;;-0.53;100.00
69570;BME280;56781;42.292;23.146;2023-04-29T03:52:57;95700.25;;;-0.57;100.00
69570;BME280;56781;42.292;23.146;2023-04-29T03:55:24;95699.94;;;-0.37;100.00
69570;BME280;56781;42.292;23.146;2023-04-29T03:57:52;95700.97;;;-0.26;100.00
69570;BME280;56781;42.292;23.146;2023-04-29T04:00:19;95698.03;;;0.06;100.00
69570;BME280;56781;42.292;23.146;2023-04-29T04:02:46;95711.44;;;0.28;100.00
69570;BME280;56781;42.292;23.146;2023-04-29T04:05:13;95709.47;;;0.47;100.00
69570;BME280;56781;42.292;23.146;2023-04-29T04:07:41;95703.38;;;0.46;100.00
69570;BME280;56781;42.292;23.146;2023-04-29T04:10:08;95716.03;;;0.84;100.00
69570;BME280;56781;42.292;23.146;2023-04-29T04:12:36;95696.34;;;0.75;100.00
69570;BME280;56781;42.292;23.146;2023-04-29T04:15:03;95720.56;;;1.01;100.00
69570;BME280;56781;42.292;23.146;2023-04-29T04:17:30;95689.06;;;0.94;100.00
69570;BME280;56781;42.292;23.146;2023-04-29T04:19:58;95708.94;;;1.14;100.00
69570;BME280;56781;42.292;23.146;2023-04-29T04:22:25;95692.09;;;1.15;100.00
69570;BME280;56781;42.292;23.146;2023-04-29T04:24:55;95689.66;;;1.42;100.00
69570;BME280;56781;42.292;23.146;2023-04-29T04:27:22;95708.06;;;1.87;100.00
69570;BME280;56781;42.292;23.146;2023-04-29T04:29:53;95699.13;;;2.05;100.00
69570;BME280;56781;42.292;23.146;2023-04-29T04:32:21;95688.06;;;2.08;100.00
69570;BME280;56781;42.292;23.146;2023-04-29T04:34:50;95709.44;;;2.24;100.00
69570;BME280;56781;42.292;23.146;2023-04-29T04:37:17;95678.16;;;2.15;100.00
69570;BME280;56781;42.292;23.146;2023-04-29T04:39:44;95688.88;;;2.26;100.00
69570;BME280;56781;42.292;23.146;2023-04-29T04:42:11;95709.16;;;2.42;100.00
69570;BME280;56781;42.292;23.146;2023-04-29T04:44:38;95682.00;;;2.47;100.00
69570;BME280;56781;42.292;23.146;2023-04-29T04:47:06;95703.53;;;2.99;100.00
69570;BME280;56781;42.292;23.146;2023-04-29T04:49:33;95668.84;;;3.18;99.42
69570;BME280;56781;42.292;23.146;2023-04-29T04:52:00;95694.06;;;3.58;96.89
69570;BME280;56781;42.292;23.146;2023-04-29T04:54:27;95681.88;;;3.84;95.65
69570;BME280;56781;42.292;23.146;2023-04-29T04:56:54;95667.41;;;4.02;94.36
69570;BME280;56781;42.292;23.146;2023-04-29T04:59:21;95662.28;;;4.22;92.12
69570;BME280;56781;42.292;23.146;2023-04-29T05:01:49;95678.63;;;4.56;90.80
69570;BME280;56781;42.292;23.146;2023-04-29T05:04:16;95687.53;;;4.35;92.20
69570;BME280;56781;42.292;23.146;2023-04-29T05:06:44;95670.84;;;4.34;92.22
69570;BME280;56781;42.292;23.146;2023-04-29T05:09:12;95675.19;;;4.61;91.54
69570;BME280;56781;42.292;23.146;2023-04-29T05:11:39;95673.19;;;4.78;88.76
69570;BME280;56781;42.292;23.146;2023-04-29T05:14:07;95694.50;;;5.09;87.59
69570;BME280;56781;42.292;23.146;2023-04-29T05:16:34;95677.59;;;5.51;87.21
69570;BME280;56781;42.292;23.146;2023-04-29T05:19:01;95653.72;;;5.71;86.41
69570;BME280;56781;42.292;23.146;2023-04-29T05:21:29;95661.97;;;5.75;84.44
69570;BME280;56781;42.292;23.146;2023-04-29T05:23:57;95672.31;;;5.61;84.38
69570;BME280;56781;42.292;23.146;2023-04-29T05:26:24;95697.59;;;5.89;81.51
69570;BME280;56781;42.292;23.146;2023-04-29T05:28:51;95673.97;;;6.08;81.20
69570;BME280;56781;42.292;23.146;2023-04-29T05:31:18;95682.97;;;6.33;80.60
69570;BME280;56781;42.292;23.146;2023-04-29T05:33:46;95660.31;;;6.46;77.63
69570;BME280;56781;42.292;23.146;2023-04-29T05:36:13;95683.34;;;6.81;78.60
69570;BME280;56781;42.292;23.146;2023-04-29T05:38:40;95660.94;;;6.97;76.75
69570;BME280;56781;42.292;23.146;2023-04-29T05:41:09;95670.31;;;7.44;74.67
69570;BME280;56781;42.292;23.146;2023-04-29T05:43:36;95672.59;;;7.95;72.01
69570;BME280;56781;42.292;23.146;2023-04-29T05:46:03;95673.59;;;8.05;70.96
69570;BME280;56781;42.292;23.146;2023-04-29T05:48:31;95640.81;;;7.70;73.38
69570;BME280;56781;42.292;23.146;2023-04-29T05:50:58;95658.66;;;8.33;73.91
69570;BME280;56781;42.292;23.146;2023-04-29T05:53:26;95673.53;;;8.68;72.21
69570;BME280;56781;42.292;23.146;2023-04-29T05:55:53;95676.09;;;9.02;68.94
69570;BME280;56781;42.292;23.146;2023-04-29T05:58:20;95656.50;;;9.12;68.35
69570;BME280;56781;42.292;23.146;2023-04-29T06:00:47;95659.19;;;9.50;66.69
69570;BME280;56781;42.292;23.146;2023-04-29T06:03:15;95657.31;;;9.69;64.21
69570;BME280;56781;42.292;23.146;2023-04-29T06:05:43;95649.22;;;9.37;65.95
69570;BME280;56781;42.292;23.146;2023-04-29T06:08:11;95644.59;;;10.27;64.06
69570;BME280;56781;42.292;23.146;2023-04-29T06:10:38;95654.50;;;10.45;62.53
69570;BME280;56781;42.292;23.146;2023-04-29T06:13:05;95661.44;;;10.74;61.91
69570;BME280;56781;42.292;23.146;2023-04-29T06:15:32;95626.91;;;11.14;58.57
69570;BME280;56781;42.292;23.146;2023-04-29T06:17:59;95645.16;;;11.12;58.95
69570;BME280;56781;42.292;23.146;2023-04-29T06:20:26;95630.81;;;10.19;61.93
69570;BME280;56781;42.292;23.146;2023-04-29T06:22:54;95634.13;;;11.63;59.60
69570;BME280;56781;42.292;23.146;2023-04-29T06:25:21;95614.72;;;13.92;52.42
69570;BME280;56781;42.292;23.146;2023-04-29T06:27:48;95615.81;;;14.26;48.15
69570;BME280;56781;42.292;23.146;2023-04-29T06:30:16;95606.69;;;15.66;45.92
69570;BME280;56781;42.292;23.146;2023-04-29T06:32:43;95616.25;;;16.18;44.56
69570;BME280;56781;42.292;23.146;2023-04-29T06:35:10;95615.13;;;16.19;41.30
69570;BME280;56781;42.292;23.146;2023-04-29T06:37:37;95601.69;;;17.42;39.82
69570;BME280;56781;42.292;23.146;2023-04-29T06:40:05;95598.34;;;16.71;38.46
69570;BME280;56781;42.292;23.146;2023-04-29T06:42:33;95605.34;;;17.21;38.02
69570;BME280;56781;42.292;23.146;2023-04-29T06:45:00;95596.22;;;19.14;37.20
69570;BME280;56781;42.292;23.146;2023-04-29T06:47:27;95614.94;;;17.84;36.10
69570;BME280;56781;42.292;23.146;2023-04-29T06:49:55;95593.50;;;17.38;38.42
69570;BME280;56781;42.292;23.146;2023-04-29T06:52:22;95595.81;;;17.64;35.53
69570;BME280;56781;42.292;23.146;2023-04-29T06:54:49;95592.00;;;18.37;34.46
69570;BME280;56781;42.292;23.146;2023-04-29T06:57:16;95600.75;;;18.47;35.75
69570;BME280;56781;42.292;23.146;2023-04-29T06:59:43;95616.41;;;18.69;34.23
69570;BME280;56781;42.292;23.146;2023-04-29T07:02:10;95606.88;;;17.59;37.32
69570;BME280;56781;42.292;23.146;2023-04-29T07:04:37;95600.50;;;18.68;33.81
69570;BME280;56781;42.292;23.146;2023-04-29T07:07:04;95606.50;;;18.89;33.37
69570;BME280;56781;42.292;23.146;2023-04-29T07:09:32;95579.03;;;18.31;34.07
69570;BME280;56781;42.292;23.146;2023-04-29T07:12:00;95600.94;;;18.38;33.04
69570;BME280;56781;42.292;23.146;2023-04-29T07:14:28;95574.88;;;18.97;33.27
69570;BME280;56781;42.292;23.146;2023-04-29T07:16:55;95590.75;;;18.79;33.28
69570;BME280;56781;42.292;23.146;2023-04-29T07:19:23;95581.47;;;17.11;36.14
69570;BME280;56781;42.292;23.146;2023-04-29T07:21:50;95556.38;;;17.39;35.18
69570;BME280;56781;42.292;23.146;2023-04-29T07:24:17;95569.94;;;17.67;35.44
69570;BME280;56781;42.292;23.146;2023-04-29T07:26:44;95569.25;;;18.10;33.96
69570;BME280;56781;42.292;23.146;2023-04-29T07:29:11;95568.66;;;18.65;30.95
69570;BME280;56781;42.292;23.146;2023-04-29T07:31:38;95567.44;;;19.29;30.38
69570;BME280;56781;42.292;23.146;2023-04-29T07:34:05;95570.50;;;19.08;28.59
69570;BME280;56781;42.292;23.146;2023-04-29T07:36:33;95588.34;;;18.61;27.38
69570;BME280;56781;42.292;23.146;2023-04-29T07:39:01;95579.19;;;18.06;32.25
69570;BME280;56781;42.292;23.146;2023-04-29T07:41:28;95564.59;;;17.02;34.74
69570;BME280;56781;42.292;23.146;2023-04-29T07:43:55;95544.00;;;17.38;35.36
69570;BME280;56781;42.292;23.146;2023-04-29T07:46:22;95584.50;;;18.94;35.28
69570;BME280;56781;42.292;23.146;2023-04-29T07:48:49;95568.06;;;18.87;33.68
69570;BME280;56781;42.292;23.146;2023-04-29T07:51:17;95567.25;;;19.92;31.33
69570;BME280;56781;42.292;23.146;2023-04-29T07:53:44;95550.75;;;18.76;30.96
69570;BME280;56781;42.292;23.146;2023-04-29T07:56:12;95579.66;;;17.96;33.63
69570;BME280;56781;42.292;23.146;2023-04-29T07:58:39;95566.47;;;19.57;32.02
69570;BME280;56781;42.292;23.146;2023-04-29T08:01:07;95530.94;;;20.24;31.01
69570;BME280;56781;42.292;23.146;2023-04-29T08:03:36;95544.75;;;20.15;31.32
69570;BME280;56781;42.292;23.146;2023-04-29T08:06:07;95547.81;;;20.33;32.26
69570;BME280;56781;42.292;23.146;2023-04-29T08:08:34;95548.06;;;21.23;30.97
69570;BME280;56781;42.292;23.146;2023-04-29T08:11:02;95545.69;;;20.46;29.68
69570;BME280;56781;42.292;23.146;2023-04-29T08:13:29;95537.88;;;20.21;30.77
69570;BME280;56781;42.292;23.146;2023-04-29T08:15:56;95556.91;;;18.29;32.55
69570;BME280;56781;42.292;23.146;2023-04-29T08:18:23;95529.81;;;18.60;30.58
69570;BME280;56781;42.292;23.146;2023-04-29T08:20:51;95534.22;;;18.65;32.17
69570;BME280;56781;42.292;23.146;2023-04-29T08:23:18;95554.13;;;19.59;32.61
69570;BME280;56781;42.292;23.146;2023-04-29T08:25:45;95535.03;;;20.14;30.15
69570;BME280;56781;42.292;23.146;2023-04-29T08:28:12;95542.88;;;19.22;30.99
69570;BME280;56781;42.292;23.146;2023-04-29T08:30:39;95514.97;;;19.60;29.05
69570;BME280;56781;42.292;23.146;2023-04-29T08:33:07;95518.53;;;19.45;28.67
69570;BME280;56781;42.292;23.146;2023-04-29T08:35:35;95534.22;;;18.81;30.31
69570;BME280;56781;42.292;23.146;2023-04-29T08:38:05;95533.06;;;18.82;30.62
69570;BME280;56781;42.292;23.146;2023-04-29T08:40:35;95540.59;;;18.41;30.70
69570;BME280;56781;42.292;23.146;2023-04-29T08:43:12;95523.56;;;17.81;32.44
69570;BME280;56781;42.292;23.146;2023-04-29T08:45:40;95528.78;;;18.65;32.07
69570;BME280;56781;42.292;23.146;2023-04-29T08:48:08;95533.69;;;17.84;31.76
69570;BME280;56781;42.292;23.146;2023-04-29T08:50:38;95535.50;;;18.55;34.09
69570;BME280;56781;42.292;23.146;2023-04-29T08:53:07;95523.34;;;18.65;30.89
69570;BME280;56781;42.292;23.146;2023-04-29T08:55:40;95530.00;;;18.83;33.95
69570;BME280;56781;42.292;23.146;2023-04-29T08:58:08;95517.25;;;18.52;34.09
69570;BME280;56781;42.292;23.146;2023-04-29T09:00:36;95523.00;;;19.18;32.59
69570;BME280;56781;42.292;23.146;2023-04-29T09:05:40;95497.13;;;17.78;33.90
69570;BME280;56781;42.292;23.146;2023-04-29T09:08:07;95500.41;;;17.83;35.36
69570;BME280;56781;42.292;23.146;2023-04-29T09:10:36;95502.31;;;17.83;33.41
69570;BME280;56781;42.292;23.146;2023-04-29T09:13:04;95493.47;;;18.14;35.31
69570;BME280;56781;42.292;23.146;2023-04-29T09:15:38;95491.81;;;18.41;35.65
69570;BME280;56781;42.292;23.146;2023-04-29T09:18:07;95510.41;;;18.43;33.09
69570;BME280;56781;42.292;23.146;2023-04-29T09:20:35;95480.50;;;17.63;32.95
69570;BME280;56781;42.292;23.146;2023-04-29T09:23:02;95470.56;;;18.27;34.89
69570;BME280;56781;42.292;23.146;2023-04-29T09:25:30;95491.69;;;18.69;33.18
69570;BME280;56781;42.292;23.146;2023-04-29T09:27:57;95493.28;;;18.38;32.61
69570;BME280;56781;42.292;23.146;2023-04-29T09:30:25;95489.16;;;18.13;33.94
69570;BME280;56781;42.292;23.146;2023-04-29T09:33:18;95461.00;;;17.86;36.13
69570;BME280;56781;42.292;23.146;2023-04-29T09:35:45;95459.97;;;17.90;34.95
69570;BME280;56781;42.292;23.146;2023-04-29T09:38:15;95464.00;;;18.44;34.88
69570;BME280;56781;42.292;23.146;2023-04-29T09:40:42;95480.19;;;18.25;34.97
69570;BME280;56781;42.292;23.146;2023-04-29T09:43:24;95460.63;;;17.15;37.03
69570;BME280;56781;42.292;23.146;2023-04-29T09:45:52;95474.66;;;18.05;36.76
69570;BME280;56781;42.292;23.146;2023-04-29T09:48:19;95457.09;;;17.99;34.78
69570;BME280;56781;42.292;23.146;2023-04-29T09:51:01;95455.84;;;17.53;39.05
69570;BME280;56781;42.292;23.146;2023-04-29T09:53:29;95467.69;;;16.06;44.24
69570;BME280;56781;42.292;23.146;2023-04-29T09:56:02;95485.38;;;15.37;42.78
69570;BME280;56781;42.292;23.146;2023-04-29T09:58:31;95487.38;;;16.06;43.19
69570;BME280;56781;42.292;23.146;2023-04-29T10:01:08;95477.38;;;16.19;45.08
69570;BME280;56781;42.292;23.146;2023-04-29T10:03:37;95456.28;;;16.98;42.33
69570;BME280;56781;42.292;23.146;2023-04-29T10:06:06;95449.03;;;17.43;39.81
69570;BME280;56781;42.292;23.146;2023-04-29T10:08:34;95445.06;;;16.84;39.44
69570;BME280;56781;42.292;23.146;2023-04-29T10:11:02;95437.19;;;16.79;40.31
69570;BME280;56781;42.292;23.146;2023-04-29T10:13:30;95444.50;;;17.47;40.54
69570;BME280;56781;42.292;23.146;2023-04-29T10:18:52;95420.94;;;17.63;37.87
69570;BME280;56781;42.292;23.146;2023-04-29T10:21:30;95430.66;;;17.64;39.35
69570;BME280;56781;42.292;23.146;2023-04-29T10:23:58;95439.44;;;17.17;38.17
69570;BME280;56781;42.292;23.146;2023-04-29T10:26:28;95421.75;;;16.67;42.57
69570;BME280;56781;42.292;23.146;2023-04-29T10:28:56;95444.97;;;16.07;43.17
69570;BME280;56781;42.292;23.146;2023-04-29T10:31:27;95439.31;;;15.87;41.87
69570;BME280;56781;42.292;23.146;2023-04-29T10:33:58;95430.09;;;15.55;42.31
69570;BME280;56781;42.292;23.146;2023-04-29T10:36:27;95433.16;;;15.54;43.39
69570;BME280;56781;42.292;23.146;2023-04-29T10:39:02;95434.59;;;15.51;45.89
69570;BME280;56781;42.292;23.146;2023-04-29T10:41:43;95439.22;;;15.50;45.77
69570;BME280;56781;42.292;23.146;2023-04-29T10:44:13;95432.53;;;15.36;42.64
69570;BME280;56781;42.292;23.146;2023-04-29T10:46:40;95421.34;;;15.25;44.79
69570;BME280;56781;42.292;23.146;2023-04-29T10:49:09;95444.34;;;15.43;45.73
69570;BME280;56781;42.292;23.146;2023-04-29T10:51:44;95449.72;;;15.31;45.34
69570;BME280;56781;42.292;23.146;2023-04-29T10:54:15;95458.03;;;15.38;45.84
69570;BME280;56781;42.292;23.146;2023-04-29T10:56:49;95428.84;;;15.07;47.30
69570;BME280;56781;42.292;23.146;2023-04-29T11:01:54;95428.22;;;14.59;54.02
69570;BME280;56781;42.292;23.146;2023-04-29T11:04:21;95439.16;;;14.84;56.81
69570;BME280;56781;42.292;23.146;2023-04-29T11:06:54;95410.97;;;14.60;55.60
69570;BME280;56781;42.292;23.146;2023-04-29T11:09:27;95426.91;;;14.66;58.39
69570;BME280;56781;42.292;23.146;2023-04-29T11:11:55;95423.50;;;14.56;56.69
69570;BME280;56781;42.292;23.146;2023-04-29T11:14:41;95435.84;;;14.57;59.47
69570;BME280;56781;42.292;23.146;2023-04-29T11:17:11;95420.44;;;14.67;57.95
69570;BME280;56781;42.292;23.146;2023-04-29T11:19:44;95419.97;;;14.35;56.58
69570;BME280;56781;42.292;23.146;2023-04-29T11:24:52;95433.72;;;14.42;55.35
69570;BME280;56781;42.292;23.146;2023-04-29T11:27:21;95419.00;;;14.39;54.44
69570;BME280;56781;42.292;23.146;2023-04-29T11:29:52;95415.97;;;14.41;54.36
69570;BME280;56781;42.292;23.146;2023-04-29T11:32:29;95417.25;;;14.65;53.76
69570;BME280;56781;42.292;23.146;2023-04-29T11:37:34;95405.25;;;14.62;55.19
69570;BME280;56781;42.292;23.146;2023-04-29T11:40:01;95419.84;;;14.82;56.23
69570;BME280;56781;42.292;23.146;2023-04-29T11:42:29;95405.06;;;14.88;54.57
69570;BME280;56781;42.292;23.146;2023-04-29T11:44:56;95412.00;;;15.10;54.55
69570;BME280;56781;42.292;23.146;2023-04-29T11:47:27;95394.56;;;15.07;54.61
69570;BME280;56781;42.292;23.146;2023-04-29T11:50:05;95404.75;;;15.23;51.08
69570;BME280;56781;42.292;23.146;2023-04-29T11:52:38;95419.88;;;15.48;53.75
69570;BME280;56781;42.292;23.146;2023-04-29T11:55:10;95409.75;;;15.45;49.35
69570;BME280;56781;42.292;23.146;2023-04-29T11:57:38;95419.19;;;15.51;48.21
69570;BME280;56781;42.292;23.146;2023-04-29T12:00:10;95403.63;;;15.36;47.15
69570;BME280;56781;42.292;23.146;2023-04-29T12:02:44;95422.81;;;15.22;47.38
69570;BME280;56781;42.292;23.146;2023-04-29T12:05:13;95409.41;;;15.14;47.58
69570;BME280;56781;42.292;23.146;2023-04-29T12:07:42;95393.19;;;15.01;50.69
69570;BME280;56781;42.292;23.146;2023-04-29T12:10:10;95390.72;;;14.96;47.72
69570;BME280;56781;42.292;23.146;2023-04-29T12:12:38;95408.25;;;15.02;48.46
69570;BME280;56781;42.292;23.146;2023-04-29T12:15:13;95401.50;;;14.75;50.77
69570;BME280;56781;42.292;23.146;2023-04-29T12:17:41;95397.44;;;14.90;51.81
69570;BME280;56781;42.292;23.146;2023-04-29T12:20:09;95412.56;;;15.16;52.19
69570;BME280;56781;42.292;23.146;2023-04-29T12:22:38;95387.31;;;15.20;52.33
69570;BME280;56781;42.292;23.146;2023-04-29T12:25:06;95376.88;;;14.98;52.90
69570;BME280;56781;42.292;23.146;2023-04-29T12:27:34;95396.69;;;15.02;53.05
69570;BME280;56781;42.292;23.146;2023-04-29T12:30:05;95377.50;;;14.82;55.17
69570;BME280;56781;42.292;23.146;2023-04-29T12:32:33;95384.63;;;14.66;56.97
69570;BME280;56781;42.292;23.146;2023-04-29T12:35:03;95381.13;;;14.66;49.43
69570;BME280;56781;42.292;23.146;2023-04-29T12:37:31;95394.19;;;14.76;50.10
69570;BME280;56781;42.292;23.146;2023-04-29T12:39:58;95406.03;;;14.83;51.13
69570;BME280;56781;42.292;23.146;2023-04-29T12:42:31;95402.88;;;14.81;49.88
69570;BME280;56781;42.292;23.146;2023-04-29T12:45:00;95403.81;;;14.85;48.58
69570;BME280;56781;42.292;23.146;2023-04-29T12:47:31;95387.53;;;14.94;49.23
69570;BME280;56781;42.292;23.146;2023-04-29T12:50:04;95380.63;;;15.05;48.11
69570;BME280;56781;42.292;23.146;2023-04-29T12:52:33;95407.38;;;15.44;50.54
69570;BME280;56781;42.292;23.146;2023-04-29T12:55:02;95394.44;;;15.49;49.74
69570;BME280;56781;42.292;23.146;2023-04-29T12:57:30;95406.69;;;15.35;56.72
69570;BME280;56781;42.292;23.146;2023-04-29T12:59:58;95407.56;;;15.26;58.08
69570;BME280;56781;42.292;23.146;2023-04-29T13:02:25;95384.25;;;15.10;58.57
69570;BME280;56781;42.292;23.146;2023-04-29T13:04:53;95399.19;;;15.07;59.72
69570;BME280;56781;42.292;23.146;2023-04-29T13:07:21;95386.16;;;15.09;59.90
69570;BME280;56781;42.292;23.146;2023-04-29T13:09:48;95400.84;;;15.12;60.22
69570;BME280;56781;42.292;23.146;2023-04-29T13:12:15;95393.22;;;15.14;61.09
69570;BME280;56781;42.292;23.146;2023-04-29T13:14:43;95403.56;;;15.12;61.55
69570;BME280;56781;42.292;23.146;2023-04-29T13:17:11;95396.59;;;15.11;56.25